createdAt,value
2022-08-11T00:00:24.686Z,22.72
2022-08-11T00:01:24.688Z,22.69
2022-08-11T00:02:24.693Z,22.69
2022-08-11T00:03:24.686Z,22.68
2022-08-11T00:04:25.700Z,22.66
2022-08-11T00:05:25.078Z,22.65
2022-08-11T00:06:24.680Z,22.62
2022-08-11T00:07:24.590Z,22.59
2022-08-11T00:08:24.587Z,22.57
2022-08-11T00:09:24.564Z,22.57
2022-08-11T00:10:24.562Z,22.55
2022-08-11T00:11:26.971Z,22.55
2022-08-11T00:12:24.559Z,22.53
2022-08-11T00:13:24.522Z,22.51
2022-08-11T00:14:24.548Z,22.48
2022-08-11T00:15:25.514Z,22.45
2022-08-11T00:16:24.487Z,22.44
2022-08-11T00:17:24.512Z,22.44
2022-08-11T00:18:24.478Z,22.41
2022-08-11T00:20:14.133Z,22.39
2022-08-11T00:20:25.466Z,22.33
2022-08-11T00:22:02.047Z,22.32
2022-08-11T00:22:25.447Z,22.29
2022-08-11T00:23:24.466Z,22.29
2022-08-11T00:24:24.416Z,22.28
2022-08-11T00:25:24.395Z,22.25
2022-08-11T00:26:24.407Z,22.25
2022-08-11T00:27:24.391Z,22.23
2022-08-11T00:28:24.407Z,22.20
2022-08-11T00:29:24.386Z,22.18
2022-08-11T00:30:24.336Z,22.17
2022-08-11T00:31:24.348Z,22.17
2022-08-11T00:32:24.341Z,22.14
2022-08-11T00:33:41.339Z,22.13
2022-08-11T00:34:25.330Z,22.11
2022-08-11T00:35:51.272Z,22.10
2022-08-11T00:36:25.800Z,22.08
2022-08-11T00:37:24.272Z,22.07
2022-08-11T00:38:24.261Z,22.02
2022-08-11T00:39:28.548Z,21.99
2022-08-11T00:40:25.271Z,21.98
2022-08-11T00:41:24.242Z,21.95
2022-08-11T00:42:24.210Z,21.93
2022-08-11T00:43:24.201Z,21.92
2022-08-11T00:44:24.182Z,21.88
2022-08-11T00:45:24.183Z,21.88
2022-08-11T00:46:24.183Z,21.85
2022-08-11T00:47:24.147Z,21.82
2022-08-11T00:48:24.148Z,21.80
2022-08-11T00:49:24.132Z,21.79
2022-08-11T00:50:24.124Z,21.77
2022-08-11T00:51:24.144Z,21.75
2022-08-11T00:52:24.114Z,21.75
2022-08-11T00:53:24.095Z,21.72
2022-08-11T00:54:24.074Z,21.72
2022-08-11T00:55:24.055Z,21.70
2022-08-11T00:56:24.048Z,21.70
2022-08-11T00:57:36.770Z,21.69
2022-08-11T00:58:25.046Z,21.69
2022-08-11T00:59:34.429Z,21.67
2022-08-11T01:00:25.019Z,21.64
2022-08-11T01:01:24.044Z,21.64
2022-08-11T01:02:24.032Z,21.62
2022-08-11T01:03:25.008Z,21.62
2022-08-11T01:04:23.971Z,21.61
2022-08-11T01:05:23.959Z,21.58
2022-08-11T01:06:23.972Z,21.57
2022-08-11T01:08:02.875Z,21.57
2022-08-11T01:08:24.960Z,21.52
2022-08-11T01:09:23.931Z,21.51
2022-08-11T01:10:23.904Z,21.50
2022-08-11T01:11:23.882Z,21.46
2022-08-11T01:12:23.961Z,21.45
2022-08-11T01:13:23.862Z,21.43
2022-08-11T01:14:33.761Z,21.40
2022-08-11T01:15:24.832Z,21.40
2022-08-11T01:16:23.834Z,21.37
2022-08-11T01:17:23.824Z,21.36
2022-08-11T01:18:28.307Z,21.33
2022-08-11T01:19:24.819Z,21.33
2022-08-11T01:20:47.804Z,21.30
2022-08-11T01:21:24.828Z,21.30
2022-08-11T01:22:23.770Z,21.30
2022-08-11T01:23:23.756Z,21.27
2022-08-11T01:24:23.737Z,21.25
2022-08-11T01:25:23.726Z,21.24
2022-08-11T01:26:23.727Z,21.22
2022-08-11T01:27:23.747Z,21.21
2022-08-11T01:28:23.709Z,21.18
2022-08-11T01:29:23.689Z,21.17
2022-08-11T01:30:23.679Z,21.15
2022-08-11T01:31:23.900Z,21.14
2022-08-11T01:32:23.699Z,21.12
2022-08-11T01:33:23.840Z,21.09
2022-08-11T01:34:23.647Z,21.09
2022-08-11T01:35:23.624Z,21.06
2022-08-11T01:36:23.601Z,21.03
2022-08-11T01:37:23.600Z,21.00
2022-08-11T01:38:23.581Z,20.99
2022-08-11T01:39:23.660Z,20.97
2022-08-11T01:40:23.603Z,20.95
2022-08-11T01:41:23.575Z,20.93
2022-08-11T01:42:23.542Z,20.93
2022-08-11T01:43:23.534Z,20.93
2022-08-11T01:44:23.523Z,20.90
2022-08-11T01:45:24.047Z,20.90
2022-08-11T01:46:23.504Z,20.88
2022-08-11T01:47:23.494Z,20.87
2022-08-11T01:48:23.503Z,20.85
2022-08-11T01:49:58.541Z,20.85
2022-08-11T01:50:24.508Z,20.84
2022-08-11T01:51:23.477Z,20.84
2022-08-11T01:52:33.595Z,20.81
2022-08-11T01:53:24.446Z,20.82
2022-08-11T01:54:23.433Z,20.81
2022-08-11T01:55:23.421Z,20.80
2022-08-11T01:56:23.400Z,20.80
2022-08-11T01:57:23.407Z,20.78
2022-08-11T01:58:40.665Z,20.80
2022-08-11T01:59:24.377Z,20.78
2022-08-11T02:00:23.363Z,20.78
2022-08-11T02:01:23.421Z,20.78
2022-08-11T02:02:23.349Z,20.78
2022-08-11T02:03:23.339Z,20.78
2022-08-11T02:04:23.309Z,20.77
2022-08-11T02:05:23.304Z,20.78
2022-08-11T02:06:23.290Z,20.75
2022-08-11T02:07:23.269Z,20.74
2022-08-11T02:08:33.132Z,20.74
2022-08-11T02:09:24.294Z,20.70
2022-08-11T02:10:23.248Z,20.72
2022-08-11T02:11:23.240Z,20.69
2022-08-11T02:12:23.229Z,20.67
2022-08-11T02:13:29.550Z,20.69
2022-08-11T02:14:24.221Z,20.67
2022-08-11T02:15:23.183Z,20.69
2022-08-11T02:16:24.131Z,20.67
2022-08-11T02:17:23.162Z,20.66
2022-08-11T02:18:23.160Z,20.67
2022-08-11T02:19:23.153Z,20.65
2022-08-11T02:20:23.190Z,20.66
2022-08-11T02:21:23.125Z,20.63
2022-08-11T02:22:23.116Z,20.63
2022-08-11T02:24:03.719Z,20.62
2022-08-11T02:24:24.100Z,20.62
2022-08-11T02:25:23.108Z,20.60
2022-08-11T02:26:23.091Z,20.60
2022-08-11T02:27:23.079Z,20.58
2022-08-11T02:28:23.067Z,20.59
2022-08-11T02:29:23.041Z,20.56
2022-08-11T02:30:23.077Z,20.56
2022-08-11T02:32:23.732Z,20.56
2022-08-11T02:32:30.016Z,20.55
2022-08-11T02:33:23.990Z,20.52
2022-08-11T02:34:22.988Z,20.51
2022-08-11T02:35:22.967Z,20.51
2022-08-11T02:36:22.974Z,20.51
2022-08-11T02:37:23.808Z,20.50
2022-08-11T02:38:22.951Z,20.48
2022-08-11T02:39:23.025Z,20.48
2022-08-11T02:40:22.911Z,20.48
2022-08-11T02:41:22.911Z,20.48
2022-08-11T02:42:32.892Z,20.44
2022-08-11T02:43:23.928Z,20.44
2022-08-11T02:44:22.871Z,20.43
2022-08-11T02:45:22.898Z,20.41
2022-08-11T02:46:22.853Z,20.41
2022-08-11T02:47:22.853Z,20.41
2022-08-11T02:48:22.885Z,20.41
2022-08-11T02:49:22.815Z,20.41
2022-08-11T02:50:22.805Z,20.43
2022-08-11T02:51:22.796Z,20.41
2022-08-11T02:52:22.796Z,20.40
2022-08-11T02:53:22.766Z,20.40
2022-08-11T02:54:22.781Z,20.39
2022-08-11T02:55:48.870Z,20.39
2022-08-11T02:56:23.741Z,20.39
2022-08-11T02:57:22.729Z,20.39
2022-08-11T02:58:27.214Z,20.37
2022-08-11T02:59:23.698Z,20.37
2022-08-11T03:00:22.699Z,20.37
2022-08-11T03:01:22.743Z,20.36
2022-08-11T03:02:22.679Z,20.37
2022-08-11T03:03:22.660Z,20.39
2022-08-11T03:04:22.662Z,20.39
2022-08-11T03:05:22.684Z,20.37
2022-08-11T03:06:22.651Z,20.37
2022-08-11T03:07:29.077Z,20.36
2022-08-11T03:08:23.635Z,20.36
2022-08-11T03:09:22.601Z,20.36
2022-08-11T03:10:22.593Z,20.36
2022-08-11T03:11:22.602Z,20.39
2022-08-11T03:12:22.587Z,20.37
2022-08-11T03:13:22.573Z,20.36
2022-08-11T03:14:22.555Z,20.39
2022-08-11T03:15:22.533Z,20.37
2022-08-11T03:16:22.544Z,20.37
2022-08-11T03:17:22.507Z,20.37
2022-08-11T03:18:22.525Z,20.37
2022-08-11T03:19:22.495Z,20.37
2022-08-11T03:20:22.523Z,20.36
2022-08-11T03:21:23.614Z,20.36
2022-08-11T03:22:22.453Z,20.34
2022-08-11T03:23:22.464Z,20.36
2022-08-11T03:24:22.457Z,20.34
2022-08-11T03:25:22.454Z,20.34
2022-08-11T03:26:22.429Z,20.34
2022-08-11T03:27:22.397Z,20.32
2022-08-11T03:28:22.459Z,20.32
2022-08-11T03:29:25.059Z,20.32
2022-08-11T03:30:22.368Z,20.34
2022-08-11T03:31:22.360Z,20.31
2022-08-11T03:32:22.338Z,20.32
2022-08-11T03:33:23.294Z,20.32
2022-08-11T03:34:22.351Z,20.31
2022-08-11T03:35:22.352Z,20.31
2022-08-11T03:36:22.312Z,20.26
2022-08-11T03:37:22.280Z,20.28
2022-08-11T03:38:22.284Z,20.24
2022-08-11T03:39:23.319Z,20.21
2022-08-11T03:40:22.277Z,20.18
2022-08-11T03:42:02.425Z,20.14
2022-08-11T03:42:23.223Z,20.11
2022-08-11T03:43:22.228Z,20.07
2022-08-11T03:44:22.240Z,20.04
2022-08-11T03:45:22.210Z,20.00
2022-08-11T03:46:22.218Z,19.95
2022-08-11T03:47:22.210Z,19.86
2022-08-11T03:48:22.166Z,19.81
2022-08-11T03:49:22.155Z,19.74
2022-08-11T03:50:22.144Z,19.70
2022-08-11T03:51:22.134Z,19.64
2022-08-11T03:52:22.114Z,19.62
2022-08-11T03:53:22.147Z,19.58
2022-08-11T03:54:22.107Z,19.55
2022-08-11T03:55:22.086Z,19.54
2022-08-11T03:56:22.077Z,19.51
2022-08-11T03:57:22.082Z,19.47
2022-08-11T03:58:22.073Z,19.40
2022-08-11T03:59:22.302Z,19.33
2022-08-11T04:00:22.044Z,19.30
2022-08-11T04:01:22.096Z,19.27
2022-08-11T04:02:22.010Z,19.24
2022-08-11T04:03:22.029Z,19.21
2022-08-11T04:04:23.010Z,19.18
2022-08-11T04:05:21.993Z,19.15
2022-08-11T04:06:21.975Z,19.11
2022-08-11T04:07:21.956Z,19.04
2022-08-11T04:08:21.941Z,19.00
2022-08-11T04:09:21.982Z,18.98
2022-08-11T04:10:21.949Z,18.95
2022-08-11T04:11:21.922Z,18.95
2022-08-11T04:12:36.487Z,18.92
2022-08-11T04:13:22.929Z,18.88
2022-08-11T04:14:21.883Z,18.83
2022-08-11T04:15:21.917Z,18.83
2022-08-11T04:16:22.829Z,18.84
2022-08-11T04:17:22.802Z,18.86
2022-08-11T04:18:22.787Z,18.88
2022-08-11T04:19:21.825Z,18.92
2022-08-11T04:20:21.809Z,18.92
2022-08-11T04:21:21.816Z,18.89
2022-08-11T04:22:21.829Z,18.89
2022-08-11T04:24:35.270Z,18.80
2022-08-11T04:24:36.635Z,18.84
2022-08-11T04:25:22.780Z,18.77
2022-08-11T04:26:21.776Z,18.78
2022-08-11T04:27:21.758Z,18.75
2022-08-11T04:28:29.088Z,18.74
2022-08-11T04:29:22.762Z,18.77
2022-08-11T04:30:21.701Z,18.78
2022-08-11T04:31:51.931Z,18.78
2022-08-11T04:32:22.695Z,18.78
2022-08-11T04:33:21.669Z,18.77
2022-08-11T04:34:21.657Z,18.77
2022-08-11T04:35:21.671Z,18.80
2022-08-11T04:36:21.641Z,18.80
2022-08-11T04:37:21.627Z,18.77
2022-08-11T04:38:21.640Z,18.75
2022-08-11T04:39:21.714Z,18.77
2022-08-11T04:40:21.599Z,18.77
2022-08-11T04:41:21.593Z,18.75
2022-08-11T04:42:21.571Z,18.75
2022-08-11T04:43:21.553Z,18.80
2022-08-11T04:44:21.554Z,18.83
2022-08-11T04:45:21.570Z,18.84
2022-08-11T04:46:21.533Z,18.86
2022-08-11T04:47:21.517Z,18.86
2022-08-11T04:48:21.544Z,18.83
2022-08-11T04:49:25.644Z,18.84
2022-08-11T04:50:22.495Z,18.86
2022-08-11T04:51:21.489Z,18.89
2022-08-11T04:52:21.481Z,18.90
2022-08-11T04:53:21.459Z,18.92
2022-08-11T04:54:26.394Z,18.93
2022-08-11T04:55:22.426Z,18.93
2022-08-11T04:56:21.427Z,18.96
2022-08-11T04:57:21.437Z,18.95
2022-08-11T04:58:21.400Z,18.93
2022-08-11T04:59:22.429Z,18.95
2022-08-11T05:00:21.379Z,18.93
2022-08-11T05:01:21.432Z,18.95
2022-08-11T05:02:21.464Z,18.99
2022-08-11T05:03:21.355Z,18.99
2022-08-11T05:04:21.396Z,18.96
2022-08-11T05:05:21.344Z,18.92
2022-08-11T05:06:21.299Z,18.90
2022-08-11T05:07:21.326Z,18.92
2022-08-11T05:08:24.049Z,18.92
2022-08-11T05:09:21.280Z,18.96
2022-08-11T05:10:21.273Z,18.99
2022-08-11T05:11:21.296Z,18.98
2022-08-11T05:12:21.272Z,18.95
2022-08-11T05:13:21.245Z,18.92
2022-08-11T05:14:21.242Z,18.90
2022-08-11T05:15:21.221Z,18.92
2022-08-11T05:16:21.213Z,18.89
2022-08-11T05:17:21.197Z,18.88
2022-08-11T05:18:21.185Z,18.89
2022-08-11T05:19:21.191Z,18.93
2022-08-11T05:20:21.254Z,18.98
2022-08-11T05:21:21.185Z,19.00
2022-08-11T05:22:21.135Z,19.04
2022-08-11T05:23:21.125Z,19.09
2022-08-11T05:24:21.166Z,19.14
2022-08-11T05:26:42.545Z,19.18
2022-08-11T05:26:45.330Z,19.21
2022-08-11T05:27:22.110Z,19.24
2022-08-11T05:28:21.110Z,19.29
2022-08-11T05:29:21.217Z,19.33
2022-08-11T05:30:21.067Z,19.40
2022-08-11T05:31:21.068Z,19.47
2022-08-11T05:32:21.079Z,19.49
2022-08-11T05:33:21.044Z,19.51
2022-08-11T05:34:21.002Z,19.48
2022-08-11T05:36:01.349Z,19.49
2022-08-11T05:36:21.993Z,19.48
2022-08-11T05:37:28.050Z,19.47
2022-08-11T05:38:21.982Z,19.45
2022-08-11T05:39:21.010Z,19.47
2022-08-11T05:40:21.929Z,19.45
2022-08-11T05:41:20.951Z,19.47
2022-08-11T05:42:29.875Z,19.48
2022-08-11T05:43:21.941Z,19.51
2022-08-11T05:44:22.300Z,19.52
2022-08-11T05:45:20.902Z,19.56
2022-08-11T05:46:20.877Z,19.59
2022-08-11T05:47:20.862Z,19.63
2022-08-11T05:48:41.834Z,19.64
2022-08-11T05:49:20.865Z,19.67
2022-08-11T05:50:31.052Z,19.70
2022-08-11T05:51:29.874Z,19.73
2022-08-11T05:52:21.818Z,19.76
2022-08-11T05:53:21.794Z,19.77
2022-08-11T05:54:28.915Z,19.79
2022-08-11T05:55:21.787Z,19.82
2022-08-11T05:56:20.799Z,19.85
2022-08-11T05:57:43.877Z,19.86
2022-08-11T05:58:21.767Z,19.91
2022-08-11T05:59:20.758Z,19.94
2022-08-11T06:00:20.749Z,19.95
2022-08-11T06:01:20.775Z,19.96
2022-08-11T06:02:20.700Z,19.99
2022-08-11T06:03:20.681Z,20.02
2022-08-11T06:04:20.680Z,20.03
2022-08-11T06:05:20.651Z,20.04
2022-08-11T06:06:20.674Z,20.07
2022-08-11T06:07:20.658Z,20.09
2022-08-11T06:08:20.680Z,20.13
2022-08-11T06:09:20.617Z,20.16
2022-08-11T06:10:20.630Z,20.19
2022-08-11T06:11:20.592Z,20.22
2022-08-11T06:12:21.605Z,20.25
2022-08-11T06:13:20.583Z,20.28
2022-08-11T06:14:20.636Z,20.31
2022-08-11T06:15:20.553Z,20.36
2022-08-11T06:16:20.545Z,20.39
2022-08-11T06:17:20.526Z,20.40
2022-08-11T06:18:20.526Z,20.44
2022-08-11T06:19:20.568Z,20.48
2022-08-11T06:20:20.496Z,20.52
2022-08-11T06:21:20.486Z,20.58
2022-08-11T06:22:20.498Z,20.60
2022-08-11T06:23:20.511Z,20.65
2022-08-11T06:24:20.466Z,20.67
2022-08-11T06:25:20.475Z,20.72
2022-08-11T06:26:20.440Z,20.75
2022-08-11T06:27:20.416Z,20.80
2022-08-11T06:28:21.075Z,20.84
2022-08-11T06:29:20.432Z,20.87
2022-08-11T06:30:21.400Z,20.92
2022-08-11T06:31:20.408Z,20.96
2022-08-11T06:32:20.386Z,20.97
2022-08-11T06:33:20.370Z,21.03
2022-08-11T06:34:27.293Z,21.06
2022-08-11T06:35:21.360Z,21.11
2022-08-11T06:36:20.331Z,21.15
2022-08-11T06:37:20.321Z,21.18
2022-08-11T06:38:20.310Z,21.21
2022-08-11T06:39:20.437Z,21.25
2022-08-11T06:40:20.363Z,21.30
2022-08-11T06:41:20.276Z,21.35
2022-08-11T06:42:20.262Z,21.40
2022-08-11T06:43:20.302Z,21.42
2022-08-11T06:44:20.234Z,21.46
2022-08-11T06:45:20.223Z,21.51
2022-08-11T06:46:24.692Z,21.52
2022-08-11T06:47:21.200Z,21.57
2022-08-11T06:48:20.864Z,21.61
2022-08-11T06:49:20.193Z,21.64
2022-08-11T06:50:20.166Z,21.67
2022-08-11T06:51:20.181Z,21.72
2022-08-11T06:52:35.584Z,21.75
2022-08-11T06:53:21.135Z,21.79
2022-08-11T06:54:20.131Z,21.85
2022-08-11T06:55:56.835Z,21.89
2022-08-11T06:56:21.106Z,21.93
2022-08-11T06:57:35.461Z,21.96
2022-08-11T06:58:21.103Z,22.00
2022-08-11T06:59:20.087Z,22.04
2022-08-11T07:00:20.082Z,22.08
2022-08-11T07:01:20.075Z,22.10
2022-08-11T07:02:20.078Z,22.14
2022-08-11T07:03:20.033Z,22.17
2022-08-11T07:04:20.019Z,22.20
2022-08-11T07:05:20.027Z,22.26
2022-08-11T07:06:20.000Z,22.29
2022-08-11T07:07:19.990Z,22.33
2022-08-11T07:08:33.642Z,22.38
2022-08-11T07:09:21.022Z,22.43
2022-08-11T07:10:19.982Z,22.47
2022-08-11T07:11:19.953Z,22.50
2022-08-11T07:12:19.939Z,22.54
2022-08-11T07:13:45.111Z,22.55
2022-08-11T07:14:20.935Z,22.60
2022-08-11T07:15:19.898Z,22.63
2022-08-11T07:16:24.780Z,22.68
2022-08-11T07:17:20.895Z,22.70
2022-08-11T07:18:19.874Z,22.72
2022-08-11T07:19:19.856Z,22.75
2022-08-11T07:20:19.860Z,22.80
2022-08-11T07:22:00.440Z,22.83
2022-08-11T07:22:21.010Z,22.87
2022-08-11T07:23:19.837Z,22.88
2022-08-11T07:24:19.790Z,22.94
2022-08-11T07:25:20.777Z,22.96
2022-08-11T07:26:19.768Z,23.02
2022-08-11T07:27:19.749Z,23.05
2022-08-11T07:28:19.771Z,23.08
2022-08-11T07:29:19.728Z,23.12
2022-08-11T07:30:19.741Z,23.15
2022-08-11T07:31:19.772Z,23.21
2022-08-11T07:32:19.715Z,23.25
2022-08-11T07:34:07.441Z,23.27
2022-08-11T07:34:20.712Z,23.31
2022-08-11T07:35:19.682Z,23.37
2022-08-11T07:36:19.659Z,23.40
2022-08-11T07:37:19.700Z,23.44
2022-08-11T07:38:22.857Z,23.47
2022-08-11T07:39:20.673Z,23.51
2022-08-11T07:40:19.622Z,23.55
2022-08-11T07:41:19.603Z,23.58
2022-08-11T07:42:19.751Z,23.61
2022-08-11T07:43:19.596Z,23.63
2022-08-11T07:44:19.587Z,23.65
2022-08-11T07:45:19.576Z,23.68
2022-08-11T07:46:19.605Z,23.69
2022-08-11T07:47:19.548Z,23.73
2022-08-11T07:48:19.525Z,23.74
2022-08-11T07:49:19.519Z,23.78
2022-08-11T07:50:19.521Z,23.81
2022-08-11T07:51:19.520Z,23.83
2022-08-11T07:52:19.520Z,23.87
2022-08-11T07:53:19.478Z,23.88
2022-08-11T07:54:19.487Z,23.93
2022-08-11T07:55:19.712Z,23.96
2022-08-11T07:56:19.633Z,24.02
2022-08-11T07:58:13.980Z,24.08
2022-08-11T07:58:20.507Z,24.10
2022-08-11T07:59:19.431Z,24.14
2022-08-11T08:00:19.391Z,24.17
2022-08-11T08:01:22.375Z,24.20
2022-08-11T08:02:19.397Z,24.26
2022-08-11T08:03:19.402Z,24.29
2022-08-11T08:04:19.364Z,24.33
2022-08-11T08:05:19.370Z,24.35
2022-08-11T08:06:35.439Z,24.40
2022-08-11T08:07:20.321Z,24.42
2022-08-11T08:08:19.345Z,24.47
2022-08-11T08:09:19.293Z,24.53
2022-08-11T08:10:19.295Z,24.55
2022-08-11T08:11:22.563Z,24.58
2022-08-11T08:12:20.273Z,24.63
2022-08-11T08:13:19.263Z,24.68
2022-08-11T08:14:19.266Z,24.73
2022-08-11T08:15:19.254Z,24.77
2022-08-11T08:16:19.289Z,24.84
2022-08-11T08:17:19.227Z,24.86
2022-08-11T08:18:26.098Z,24.92
2022-08-11T08:19:20.197Z,24.93
2022-08-11T08:20:19.200Z,25.01
2022-08-11T08:21:19.162Z,25.06
2022-08-11T08:22:48.589Z,25.10
2022-08-11T08:23:20.138Z,25.14
2022-08-11T08:24:19.156Z,25.18
2022-08-11T08:25:19.118Z,25.22
2022-08-11T08:26:19.121Z,25.26
2022-08-11T08:27:19.099Z,25.32
2022-08-11T08:28:19.130Z,25.36
2022-08-11T08:29:19.139Z,25.38
2022-08-11T08:30:19.099Z,25.41
2022-08-11T08:31:19.071Z,25.44
2022-08-11T08:32:19.061Z,25.46
2022-08-11T08:33:19.071Z,25.48
2022-08-11T08:34:19.030Z,25.50
2022-08-11T08:35:19.033Z,25.53
2022-08-11T08:36:19.003Z,25.54
2022-08-11T08:37:45.806Z,25.58
2022-08-11T08:38:19.984Z,25.63
2022-08-11T08:39:19.060Z,25.65
2022-08-11T08:40:18.977Z,25.66
2022-08-11T08:41:18.959Z,25.69
2022-08-11T08:42:18.935Z,25.73
2022-08-11T08:43:18.979Z,25.77
2022-08-11T08:44:37.624Z,25.80
2022-08-11T08:45:19.897Z,25.84
2022-08-11T08:46:18.898Z,25.88
2022-08-11T08:47:41.117Z,25.93
2022-08-11T08:48:19.939Z,26.00
2022-08-11T08:49:18.859Z,26.06
2022-08-11T08:50:18.876Z,26.13
2022-08-11T08:51:18.850Z,26.19
2022-08-11T08:52:26.044Z,26.23
2022-08-11T08:53:19.821Z,26.29
2022-08-11T08:54:18.833Z,26.34
2022-08-11T08:55:18.804Z,26.41
2022-08-11T08:56:18.812Z,26.45
2022-08-11T08:57:18.780Z,26.52
2022-08-11T08:58:18.769Z,26.58
2022-08-11T08:59:18.751Z,26.63
2022-08-11T09:00:23.004Z,26.68
2022-08-11T09:01:19.839Z,26.74
2022-08-11T09:02:18.729Z,26.81
2022-08-11T09:04:21.045Z,26.89
2022-08-11T09:05:18.709Z,26.90
2022-08-11T09:06:18.679Z,26.93
2022-08-11T09:07:18.661Z,26.95
2022-08-11T09:08:18.656Z,26.97
2022-08-11T09:09:18.636Z,26.99
2022-08-11T09:10:18.650Z,27.02
2022-08-11T09:11:18.624Z,27.05
2022-08-11T09:12:36.586Z,27.08
2022-08-11T09:13:19.600Z,27.11
2022-08-11T09:14:18.589Z,27.12
2022-08-11T09:15:19.681Z,27.15
2022-08-11T09:16:18.573Z,27.20
2022-08-11T09:17:18.550Z,27.21
2022-08-11T09:18:18.552Z,27.25
2022-08-11T09:19:18.540Z,27.27
2022-08-11T09:20:18.534Z,27.29
2022-08-11T09:21:39.201Z,27.30
2022-08-11T09:22:19.526Z,27.33
2022-08-11T09:24:26.039Z,27.40
2022-08-11T09:25:19.523Z,27.44
2022-08-11T09:26:18.483Z,27.47
2022-08-11T09:27:18.445Z,27.49
2022-08-11T09:28:18.443Z,27.51
2022-08-11T09:29:18.424Z,27.51
2022-08-11T09:30:18.423Z,27.54
2022-08-11T09:31:18.439Z,27.58
2022-08-11T09:32:18.425Z,27.59
2022-08-11T09:33:18.381Z,27.63
2022-08-11T09:34:18.411Z,27.67
2022-08-11T09:35:18.376Z,27.70
2022-08-11T09:36:18.360Z,27.74
2022-08-11T09:37:28.458Z,27.77
2022-08-11T09:38:19.362Z,27.78
2022-08-11T09:39:18.404Z,27.80
2022-08-11T09:40:18.332Z,27.83
2022-08-11T09:41:18.313Z,27.87
2022-08-11T09:42:23.102Z,27.89
2022-08-11T09:43:18.290Z,27.89
2022-08-11T09:44:18.289Z,27.90
2022-08-11T09:45:18.258Z,27.90
2022-08-11T09:46:18.242Z,27.89
2022-08-11T09:47:18.222Z,27.90
2022-08-11T09:48:18.259Z,27.93
2022-08-11T09:49:18.203Z,27.96
2022-08-11T09:50:18.236Z,28.00
2022-08-11T09:51:18.227Z,28.01
2022-08-11T09:52:18.207Z,28.01
2022-08-11T09:53:34.968Z,28.01
2022-08-11T09:54:19.191Z,28.05
2022-08-11T09:55:18.140Z,28.05
2022-08-11T09:56:18.145Z,28.07
2022-08-11T09:57:18.130Z,28.11
2022-08-11T09:58:42.065Z,28.14
2022-08-11T09:59:19.125Z,28.17
2022-08-11T10:00:18.117Z,28.20
2022-08-11T10:01:18.129Z,28.25
2022-08-11T10:02:18.088Z,28.25
2022-08-11T10:03:18.209Z,28.27
2022-08-11T10:04:18.058Z,28.27
2022-08-11T10:05:18.030Z,28.30
2022-08-11T10:06:18.051Z,28.32
2022-08-11T10:07:18.011Z,28.32
2022-08-11T10:08:18.041Z,28.30
2022-08-11T10:09:18.071Z,28.33
2022-08-11T10:10:18.072Z,28.35
2022-08-11T10:11:17.966Z,28.35
2022-08-11T10:12:18.036Z,28.37
2022-08-11T10:14:32.180Z,28.35
2022-08-11T10:14:32.797Z,28.33
2022-08-11T10:15:18.925Z,28.33
2022-08-11T10:16:17.935Z,28.35
2022-08-11T10:17:17.908Z,28.38
2022-08-11T10:18:17.934Z,28.38
2022-08-11T10:19:17.879Z,28.42
2022-08-11T10:20:20.452Z,28.48
2022-08-11T10:21:17.865Z,28.56
2022-08-11T10:22:17.861Z,28.60
2022-08-11T10:23:17.835Z,28.66
2022-08-11T10:24:17.898Z,28.69
2022-08-11T10:25:19.638Z,28.67
2022-08-11T10:26:17.845Z,28.67
2022-08-11T10:27:17.795Z,28.67
2022-08-11T10:28:33.793Z,28.72
2022-08-11T10:29:19.121Z,28.67
2022-08-11T10:30:17.870Z,28.67
2022-08-11T10:31:17.756Z,28.66
2022-08-11T10:32:17.757Z,28.66
2022-08-11T10:33:37.028Z,28.66
2022-08-11T10:34:19.755Z,28.67
2022-08-11T10:35:17.754Z,28.72
2022-08-11T10:36:17.725Z,28.75
2022-08-11T10:37:17.702Z,28.79
2022-08-11T10:38:17.801Z,28.81
2022-08-11T10:39:18.128Z,28.76
2022-08-11T10:40:17.670Z,28.74
2022-08-11T10:41:17.703Z,28.67
2022-08-11T10:42:35.055Z,28.63
2022-08-11T10:43:59.389Z,28.59
2022-08-11T10:44:18.634Z,28.51
2022-08-11T10:45:17.640Z,28.44
2022-08-11T10:46:17.623Z,28.39
2022-08-11T10:47:18.597Z,28.37
2022-08-11T10:48:17.574Z,28.33
2022-08-11T10:49:17.564Z,28.27
2022-08-11T10:50:17.550Z,28.23
2022-08-11T10:51:25.633Z,28.19
2022-08-11T10:52:18.532Z,28.19
2022-08-11T10:53:17.526Z,28.15
2022-08-11T10:54:17.519Z,28.12
2022-08-11T10:55:17.489Z,28.15
2022-08-11T10:56:17.488Z,28.19
2022-08-11T10:57:17.500Z,28.20
2022-08-11T10:58:17.460Z,28.25
2022-08-11T10:59:17.458Z,28.33
2022-08-11T11:00:17.440Z,28.45
2022-08-11T11:01:17.474Z,28.54
2022-08-11T11:02:17.491Z,28.64
2022-08-11T11:03:23.557Z,28.74
2022-08-11T11:04:18.423Z,28.85
2022-08-11T11:05:17.399Z,28.94
2022-08-11T11:06:29.449Z,29.04
2022-08-11T11:07:18.451Z,29.12
2022-08-11T11:08:17.370Z,29.19
2022-08-11T11:09:17.346Z,29.31
2022-08-11T11:10:17.342Z,29.39
2022-08-11T11:11:18.335Z,29.47
2022-08-11T11:12:17.303Z,29.54
2022-08-11T11:13:17.349Z,29.65
2022-08-11T11:14:17.337Z,29.65
2022-08-11T11:15:17.808Z,29.66
2022-08-11T11:16:17.307Z,29.66
2022-08-11T11:17:17.266Z,29.61
2022-08-11T11:18:17.256Z,29.61
2022-08-11T11:19:17.246Z,29.63
2022-08-11T11:20:37.021Z,29.66
2022-08-11T11:21:18.219Z,29.66
2022-08-11T11:22:17.209Z,29.65
2022-08-11T11:23:17.219Z,29.60
2022-08-11T11:24:17.179Z,29.57
2022-08-11T11:25:17.166Z,29.54
2022-08-11T11:26:17.194Z,29.53
2022-08-11T11:27:18.149Z,29.49
2022-08-11T11:28:17.145Z,29.45
2022-08-11T11:29:17.147Z,29.44
2022-08-11T11:30:17.154Z,29.44
2022-08-11T11:31:17.134Z,29.41
2022-08-11T11:32:17.152Z,29.42
2022-08-11T11:33:18.115Z,29.42
2022-08-11T11:34:17.069Z,29.47
2022-08-11T11:35:17.054Z,29.51
2022-08-11T11:36:17.054Z,29.57
2022-08-11T11:37:17.101Z,29.60
2022-08-11T11:38:17.041Z,29.59
2022-08-11T11:39:17.051Z,29.61
2022-08-11T11:40:17.015Z,29.65
2022-08-11T11:41:17.014Z,29.71
2022-08-11T11:42:16.990Z,29.81
2022-08-11T11:43:17.048Z,29.87
2022-08-11T11:44:16.991Z,29.94
2022-08-11T11:45:23.807Z,29.97
2022-08-11T11:46:17.969Z,29.95
2022-08-11T11:47:16.953Z,29.95
2022-08-11T11:48:16.954Z,29.93
2022-08-11T11:49:17.528Z,29.91
2022-08-11T11:50:16.922Z,29.88
2022-08-11T11:51:16.927Z,29.87
2022-08-11T11:52:16.924Z,29.81
2022-08-11T11:53:16.891Z,29.78
2022-08-11T11:54:16.914Z,29.73
2022-08-11T11:55:16.934Z,29.69
2022-08-11T11:56:16.845Z,29.69
2022-08-11T11:57:16.833Z,29.68
2022-08-11T11:58:18.770Z,29.71
2022-08-11T11:59:16.835Z,29.78
2022-08-11T12:00:16.805Z,29.81
2022-08-11T12:01:16.810Z,29.86
2022-08-11T12:02:16.821Z,29.88
2022-08-11T12:03:16.853Z,29.91
2022-08-11T12:04:16.780Z,29.94
2022-08-11T12:05:16.767Z,29.98
2022-08-11T12:06:16.745Z,30.00
2022-08-11T12:07:16.727Z,29.98
2022-08-11T12:08:16.722Z,29.97
2022-08-11T12:09:16.754Z,29.98
2022-08-11T12:10:16.727Z,29.98
2022-08-11T12:11:16.733Z,29.97
2022-08-11T12:12:16.665Z,29.95
2022-08-11T12:13:16.691Z,29.91
2022-08-11T12:14:16.695Z,29.88
2022-08-11T12:15:16.678Z,29.82
2022-08-11T12:16:34.851Z,29.78
2022-08-11T12:17:17.642Z,29.75
2022-08-11T12:18:16.639Z,29.75
2022-08-11T12:19:16.643Z,29.78
2022-08-11T12:20:33.415Z,29.82
2022-08-11T12:21:17.590Z,29.91
2022-08-11T12:22:16.655Z,30.02
2022-08-11T12:23:16.609Z,30.10
2022-08-11T12:24:16.577Z,30.15
2022-08-11T12:25:16.567Z,30.21
2022-08-11T12:26:26.990Z,30.25
2022-08-11T12:27:18.169Z,30.30
2022-08-11T12:28:16.545Z,30.37
2022-08-11T12:29:16.510Z,30.47
2022-08-11T12:30:16.509Z,30.57
2022-08-11T12:31:16.469Z,30.62
2022-08-11T12:32:16.490Z,30.65
2022-08-11T12:33:16.581Z,30.63
2022-08-11T12:34:17.473Z,30.63
2022-08-11T12:35:16.441Z,30.66
2022-08-11T12:36:16.457Z,30.73
2022-08-11T12:37:16.777Z,30.81
2022-08-11T12:38:16.535Z,30.94
2022-08-11T12:39:24.302Z,31.09
2022-08-11T12:40:42.416Z,31.27
2022-08-11T12:41:17.455Z,31.43
2022-08-11T12:42:16.374Z,31.62
2022-08-11T12:43:21.645Z,31.85
2022-08-11T12:44:17.374Z,32.21
2022-08-11T12:45:22.601Z,32.56
2022-08-11T12:46:17.316Z,32.89
2022-08-11T12:47:16.294Z,33.11
2022-08-11T12:48:59.400Z,33.37
2022-08-11T12:49:17.295Z,33.58
2022-08-11T12:50:20.861Z,33.74
2022-08-11T12:51:17.256Z,33.90
2022-08-11T12:52:16.402Z,34.08
2022-08-11T12:53:16.261Z,34.24
2022-08-11T12:54:16.250Z,34.48